Historical Weather Data

Soule Park Golf Course
1033 East Ojai Ave
Ojai, CA 93023
Date ET
(Inches)
Rain
(Inches)
Temp °F
Humidity
Avg
Wind MPH
Avg
Solar Wm2
Avg
High Ave Low
6/1/17 0.20 0.00 79.1 64.7 53.1 73 2.8 321
6/2/17 0.24 0.00 87.1 69.1 51.0 66 2.6 356
6/3/17 0.24 0.00 88.0 69.3 52.8 69 2.8 349
6/4/17 0.22 0.00 85.7 67.4 54.2 73 2.8 345
6/5/17 0.21 0.00 81.8 65.1 53.8 78 2.9 332
6/6/17 0.18 0.00 77.2 63.3 56.1 83 3.4 308
6/7/17 0.16 0.00 76.4 64.2 58.4 80 3.3 272
6/8/17 0.11 0.00 69.3 62.4 54.2 82 2.7 185
6/9/17 0.21 0.00 77.1 64.0 50.5 77 3.2 352
6/10/17 0.05 0.00 66.5 61.4 53.8 85 2.0 75
6/11/17 0.11 0.00 69.8 60.3 50.4 73 2.2 156
6/12/17 0.24 0.00 76.4 61.4 42.1 57 3.0 371
6/13/17 0.26 0.00 85.7 66.6 44.4 49 3.0 371
6/14/17 0.27 0.00 89.4 71.9 49.2 48 2.6 369
6/15/17 0.27 0.00 92.6 73.9 52.2 48 2.3 366
6/16/17 0.29 0.00 95.3 75.7 54.0 47 2.9 371
6/17/17 0.27 0.00 95.1 75.1 54.2 52 2.7 358
6/18/17 0.27 0.00 93.4 75.4 56.2 56 2.5 358
6/19/17 0.27 0.00 96.9 76.3 57.3 58 2.6 361
6/20/17 0.27 0.00 99.4 78.5 57.1 56 2.5 356
6/21/17 0.27 0.00 99.7 79.4 60.5 54 2.1 351
6/22/17 0.24 0.00 85.5 71.2 58.1 70 2.8 351
6/23/17 0.22 0.00 85.1 69.0 58.4 75 2.9 335
6/24/17 0.21 0.00 90.2 72.0 57.7 67 2.8 291
6/25/17 0.29 0.00 104.4 80.0 57.0 52 2.7 361
6/26/17 0.31 0.00 100.5 79.3 57.4 41 3.2 371
6/27/17 0.28 0.00 92.4 74.0 52.8 47 2.5 370
6/28/17 0.25 0.00 86.5 69.2 51.8 62 2.7 363
6/29/17 0.22 0.00 80.3 66.3 51.9 71 2.6 354
6/30/17 0.22 0.00 81.7 66.5 51.6 72 2.5 342